Time;durP1;ratioP1;P1;durP2;ratioP2;P2;SDS_P1;SDS_P2;PMS_P1;PMS_P2;Temp;Humidity;BMP_temperature;BMP_pressure;BME280_temperature;BME280_humidity;BME280_pressure;Samples;Min_cycle;Max_cycle;Signal;HPM_P1;HPM_P2
2022/12/18 00:01:05;;;;;;;22.35;14.15;;;1.60;75.80;;;;;;5073016;28;20112;-78
2022/12/18 00:03:35;;;;;;;22.73;14.45;;;1.60;75.80;;;;;;5072162;28;20056;-78
2022/12/18 00:06:02;;;;;;;24.50;15.13;;;1.60;75.80;;;;;;5055445;28;20449;-78
2022/12/18 00:08:28;;;;;;;22.77;14.88;;;1.60;75.80;;;;;;5055777;28;20110;-79
2022/12/18 00:10:54;;;;;;;25.05;15.15;;;1.60;75.80;;;;;;5073101;28;20032;-79
2022/12/18 00:13:20;;;;;;;21.95;14.00;;;1.50;75.70;;;;;;5073599;28;20204;-78
2022/12/18 00:15:46;;;;;;;23.63;15.10;;;1.50;75.70;;;;;;5055495;28;20043;-78
2022/12/18 00:18:12;;;;;;;24.35;15.38;;;1.40;75.70;;;;;;5073825;28;20037;-79
2022/12/18 00:20:39;;;;;;;23.92;14.82;;;1.40;75.70;;;;;;5039012;28;20046;-79
2022/12/18 00:23:06;;;;;;;21.90;14.75;;;1.40;75.70;;;;;;5072201;28;20078;-78
2022/12/18 00:25:36;;;;;;;21.85;14.35;;;1.40;75.80;;;;;;5072374;28;20032;-78
2022/12/18 00:28:03;;;;;;;23.30;15.30;;;1.40;75.80;;;;;;5056142;28;20476;-77
2022/12/18 00:30:28;;;;;;;21.42;14.35;;;1.40;75.80;;;;;;5073402;28;20056;-79
2022/12/18 00:32:54;;;;;;;20.40;13.35;;;1.40;75.80;;;;;;5055311;28;20052;-78
2022/12/18 00:35:20;;;;;;;22.60;14.30;;;1.30;75.70;;;;;;5038614;28;20040;-78
2022/12/18 00:37:46;;;;;;;22.15;14.48;;;1.30;75.80;;;;;;5056089;28;20446;-79
2022/12/18 00:40:12;;;;;;;22.88;14.43;;;1.30;75.80;;;;;;5072020;28;20035;-78
2022/12/18 00:42:56;;;;;;;20.85;14.40;;;1.30;75.80;;;;;;5073305;28;20170;-78
2022/12/18 00:45:28;;;;;;;20.95;14.50;;;1.20;75.70;;;;;;5038757;28;20025;-79
2022/12/18 00:47:56;;;;;;;21.52;14.93;;;1.20;75.70;;;;;;5071969;28;20028;-78
2022/12/18 00:50:23;;;;;;;22.10;14.00;;;1.20;75.70;;;;;;5072084;28;20017;-78
2022/12/18 00:52:49;;;;;;;20.95;14.10;;;1.20;75.70;;;;;;5072647;28;20032;-78
2022/12/18 00:55:16;;;;;;;22.33;15.23;;;1.10;75.70;;;;;;5056204;28;20029;-80
2022/12/18 00:57:42;;;;;;;21.80;14.75;;;1.10;75.70;;;;;;5073234;28;20576;-78
2022/12/18 01:00:14;;;;;;;22.70;15.02;;;1.10;75.70;;;;;;5055436;28;20033;-78
2022/12/18 01:02:41;;;;;;;21.30;14.88;;;1.10;75.70;;;;;;5055888;28;20068;-79
2022/12/18 01:05:08;;;;;;;20.35;14.00;;;1.10;75.70;;;;;;5072305;28;20032;-78
2022/12/18 01:07:34;;;;;;;20.08;12.88;;;1.00;76.20;;;;;;5072102;28;20519;-79
2022/12/18 01:10:03;;;;;;;21.88;14.00;;;1.00;75.60;;;;;;5039536;28;20031;-78
2022/12/18 01:12:28;;;;;;;21.98;15.00;;;1.00;75.70;;;;;;5055440;28;20063;-78
2022/12/18 01:14:54;;;;;;;19.55;13.70;;;1.00;75.60;;;;;;5055527;28;20064;-78
2022/12/18 01:17:20;;;;;;;22.45;14.48;;;0.90;75.60;;;;;;5055502;28;20394;-77
2022/12/18 01:19:46;;;;;;;18.40;12.93;;;0.90;75.60;;;;;;5072928;28;20036;-78
2022/12/18 01:22:11;;;;;;;21.50;14.25;;;0.90;75.60;;;;;;5038523;28;20079;-77
2022/12/18 01:24:37;;;;;;;19.05;13.02;;;0.90;75.60;;;;;;5073141;28;20405;-78
2022/12/18 01:27:03;;;;;;;21.10;14.13;;;0.90;75.60;;;;;;5039657;28;20389;-77
2022/12/18 01:29:29;;;;;;;20.20;13.93;;;0.90;75.60;;;;;;5071684;28;20043;-78
2022/12/18 01:31:56;;;;;;;20.60;14.10;;;0.80;75.50;;;;;;5072927;28;20024;-78
2022/12/18 01:34:23;;;;;;;19.40;13.13;;;0.80;75.50;;;;;;5038605;28;20044;-77
2022/12/18 01:36:51;;;;;;;21.60;14.85;;;0.80;75.50;;;;;;5055069;28;20032;-77
2022/12/18 01:39:18;;;;;;;22.20;14.55;;;0.80;75.50;;;;;;5054900;28;20108;-77
2022/12/18 01:42:02;;;;;;;19.05;13.07;;;0.80;75.50;;;;;;5072965;28;20107;-78
2022/12/18 01:44:57;;;;;;;18.92;13.57;;;0.70;75.50;;;;;;5057168;28;20354;-77
2022/12/18 01:47:41;;;;;;;20.33;13.02;;;0.70;75.50;;;;;;5076348;28;20036;-79
2022/12/18 01:50:12;;;;;;;19.58;12.35;;;0.70;75.60;;;;;;5058625;28;20118;-78
2022/12/18 01:52:38;;;;;;;20.33;13.60;;;0.70;75.70;;;;;;5058822;28;20060;-78
2022/12/18 01:55:05;;;;;;;20.73;13.40;;;0.60;75.50;;;;;;5076480;28;20029;-77
2022/12/18 01:57:32;;;;;;;19.60;14.15;;;0.60;75.50;;;;;;5058716;28;20461;-77
2022/12/18 02:00:03;;;;;;;19.25;13.60;;;0.60;75.50;;;;;;5075210;28;20047;-77
2022/12/18 02:02:41;;;;;;;19.02;13.38;;;0.60;75.50;;;;;;5059390;28;20036;-77
2022/12/18 02:05:07;;;;;;;16.83;12.30;;;0.60;75.50;;;;;;5074334;28;20070;-77
2022/12/18 02:07:42;;;;;;;20.05;13.50;;;0.50;75.40;;;;;;5058579;28;20526;-77
2022/12/18 02:10:22;;;;;;;17.85;12.43;;;0.50;75.40;;;;;;5074982;28;20025;-78
2022/12/18 02:13:09;;;;;;;17.63;12.52;;;0.50;75.40;;;;;;5058277;28;20423;-77
2022/12/18 02:16:14;;;;;;;20.35;13.38;;;0.50;75.40;;;;;;5058039;28;20029;-78
2022/12/18 02:18:46;;;;;;;19.05;12.25;;;0.50;75.40;;;;;;5018202;28;20052;-78
2022/12/18 02:21:44;;;;;;;16.98;12.38;;;0.40;75.40;;;;;;5041599;28;20025;-78
2022/12/18 02:24:42;;;;;;;18.08;12.82;;;0.40;75.40;;;;;;5075278;28;20052;-78
2022/12/18 02:27:10;;;;;;;18.05;11.77;;;0.40;75.40;;;;;;5075184;28;20418;-78
2022/12/18 02:29:48;;;;;;;16.25;11.88;;;0.30;75.30;;;;;;5057628;28;20020;-78
2022/12/18 02:32:19;;;;;;;18.67;12.98;;;0.30;75.40;;;;;;5057994;28;20024;-78
2022/12/18 02:34:46;;;;;;;18.23;12.95;;;0.40;75.50;;;;;;5057837;28;20036;-78
2022/12/18 02:37:18;;;;;;;19.60;13.27;;;0.30;75.30;;;;;;5058488;28;20039;-80
2022/12/18 02:39:46;;;;;;;18.17;12.88;;;0.30;75.30;;;;;;5074333;28;20036;-78
2022/12/18 02:42:14;;;;;;;18.67;12.80;;;0.30;75.30;;;;;;5073986;28;20029;-79
2022/12/18 02:44:49;;;;;;;18.60;12.65;;;0.20;75.30;;;;;;5074249;28;20567;-78
2022/12/18 02:47:22;;;;;;;17.17;12.07;;;0.30;75.30;;;;;;5074023;28;20037;-78
2022/12/18 02:49:57;;;;;;;18.00;12.57;;;0.20;75.30;;;;;;5057857;28;20123;-78
2022/12/18 02:53:01;;;;;;;17.88;12.85;;;0.20;75.30;;;;;;5074109;28;20083;-78
2022/12/18 02:55:56;;;;;;;16.55;12.45;;;0.20;75.30;;;;;;5073563;28;20059;-78
2022/12/18 02:58:37;;;;;;;17.50;12.80;;;0.10;75.30;;;;;;5057708;28;20052;-78
2022/12/18 03:01:35;;;;;;;15.45;11.45;;;0.10;75.30;;;;;;5057484;28;20040;-79
2022/12/18 03:04:08;;;;;;;17.98;12.57;;;0.10;75.30;;;;;;5057180;28;20027;-78
2022/12/18 03:06:42;;;;;;;17.25;12.00;;;0.00;75.20;;;;;;5040371;28;20066;-78
2022/12/18 03:09:17;;;;;;;18.33;11.90;;;0.00;75.30;;;;;;5074460;28;20040;-78
2022/12/18 03:14:40;;;;;;;16.88;11.40;;;0.00;75.20;;;;;;5073569;28;20493;-77
2022/12/18 03:17:13;;;;;;;16.63;11.85;;;0.00;75.20;;;;;;5073623;28;20034;-79
2022/12/18 03:19:40;;;;;;;16.98;12.13;;;0.00;75.20;;;;;;5057197;28;20028;-76
2022/12/18 03:22:08;;;;;;;17.65;11.48;;;-0.10;75.20;;;;;;5073246;28;20031;-78
2022/12/18 03:24:42;;;;;;;17.85;12.07;;;-0.10;75.10;;;;;;5073637;28;20074;-78
2022/12/18 03:27:12;;;;;;;15.85;11.63;;;-0.10;75.20;;;;;;5040402;28;20036;-80
2022/12/18 03:30:07;;;;;;;15.60;11.25;;;-0.10;75.20;;;;;;5040854;28;20033;-77
2022/12/18 03:32:50;;;;;;;18.58;11.25;;;-0.10;75.20;;;;;;5073544;28;20029;-78
2022/12/18 03:35:21;;;;;;;16.08;11.40;;;-0.10;75.20;;;;;;5073476;28;20032;-77
2022/12/18 03:37:47;;;;;;;18.05;12.60;;;-0.20;75.10;;;;;;5056568;28;20038;-78
2022/12/18 03:40:13;;;;;;;18.25;11.88;;;-0.20;75.10;;;;;;5056681;28;20120;-77
2022/12/18 03:42:52;;;;;;;15.77;10.82;;;-0.20;75.10;;;;;;5056489;28;20032;-78
2022/12/18 03:45:37;;;;;;;15.75;11.48;;;-0.20;75.10;;;;;;5072866;28;20036;-78
2022/12/18 03:48:35;;;;;;;15.32;10.70;;;-0.20;75.10;;;;;;5073175;28;20037;-77
2022/12/18 03:51:10;;;;;;;16.02;10.90;;;-0.30;75.10;;;;;;5055217;28;20074;-77
2022/12/18 03:54:02;;;;;;;16.13;11.25;;;-0.30;75.10;;;;;;5073087;28;20412;-79
2022/12/18 03:56:41;;;;;;;15.75;11.15;;;-0.30;75.10;;;;;;5055854;28;20028;-77
2022/12/18 03:59:11;;;;;;;13.60;9.85;;;-0.30;75.10;;;;;;5057255;28;20032;-77
2022/12/18 04:01:42;;;;;;;15.60;11.15;;;-0.30;75.10;;;;;;5073336;28;20035;-77
2022/12/18 04:04:10;;;;;;;15.85;11.25;;;-0.30;75.10;;;;;;5056619;28;20036;-76
2022/12/18 04:06:40;;;;;;;16.02;11.05;;;-0.40;75.00;;;;;;5056050;28;20127;-77
2022/12/18 04:09:09;;;;;;;14.77;10.93;;;-0.40;75.00;;;;;;5073173;28;20032;-77
2022/12/18 04:11:40;;;;;;;15.48;10.25;;;-0.40;75.00;;;;;;5056274;28;20032;-78
2022/12/18 04:14:06;;;;;;;15.40;10.43;;;-0.40;75.00;;;;;;5073410;28;20024;-77
2022/12/18 04:16:32;;;;;;;14.13;10.77;;;-0.40;75.00;;;;;;5055956;28;20131;-77
2022/12/18 04:19:01;;;;;;;15.50;11.20;;;-0.40;75.00;;;;;;5056275;28;20036;-77
2022/12/18 04:21:30;;;;;;;16.40;11.02;;;-0.40;75.00;;;;;;5039593;28;20032;-80
2022/12/18 04:23:55;;;;;;;15.77;10.73;;;-0.50;74.90;;;;;;5055498;28;20049;-77
2022/12/18 04:26:22;;;;;;;15.98;11.13;;;-0.50;74.90;;;;;;5072634;28;20123;-78
2022/12/18 04:29:11;;;;;;;13.35;9.70;;;-0.50;74.90;;;;;;5062600;28;20481;-77
2022/12/18 04:31:37;;;;;;;12.68;9.63;;;-0.50;74.90;;;;;;5039843;28;20507;-77
2022/12/18 04:34:03;;;;;;;17.02;11.07;;;-0.50;74.90;;;;;;5056513;28;20036;-77
2022/12/18 04:36:35;;;;;;;13.60;9.20;;;-0.50;74.90;;;;;;5072610;28;20037;-77
2022/12/18 04:39:01;;;;;;;12.80;9.05;;;-0.50;74.90;;;;;;5072333;28;20127;-78
2022/12/18 04:41:27;;;;;;;13.30;9.70;;;-0.60;74.80;;;;;;5055338;28;20082;-78
2022/12/18 04:43:53;;;;;;;12.63;9.75;;;-0.60;74.80;;;;;;5072237;28;20031;-78
2022/12/18 04:46:19;;;;;;;12.98;9.18;;;-0.60;74.80;;;;;;5073620;28;20032;-77
2022/12/18 04:48:46;;;;;;;13.43;10.75;;;-0.60;74.80;;;;;;5073741;28;20036;-78
2022/12/18 04:51:12;;;;;;;13.60;10.05;;;-0.60;75.40;;;;;;5055860;28;20078;-79
2022/12/18 04:53:38;;;;;;;14.65;10.02;;;-0.60;74.80;;;;;;5055955;28;20113;-78
2022/12/18 04:56:05;;;;;;;14.77;10.00;;;-0.60;74.80;;;;;;5055985;28;20371;-78
2022/12/18 04:58:31;;;;;;;13.30;9.93;;;-0.60;74.80;;;;;;5055750;28;20036;-77
2022/12/18 05:00:56;;;;;;;14.50;9.35;;;-0.60;74.70;;;;;;5055444;28;20373;-78
2022/12/18 05:03:22;;;;;;;12.98;8.82;;;-0.70;74.70;;;;;;5056352;28;20434;-77
2022/12/18 05:05:51;;;;;;;13.18;9.25;;;-0.70;74.70;;;;;;5072379;28;20075;-77
2022/12/18 05:08:17;;;;;;;12.48;8.50;;;-0.70;74.70;;;;;;5055604;28;20028;-77
2022/12/18 05:10:43;;;;;;;14.27;9.88;;;-0.70;74.70;;;;;;5072303;28;20060;-77
2022/12/18 05:13:09;;;;;;;13.63;10.63;;;-0.70;74.70;;;;;;5073287;28;20094;-77
2022/12/18 05:15:35;;;;;;;13.18;9.38;;;-0.70;74.70;;;;;;5055498;28;20037;-77
2022/12/18 05:18:01;;;;;;;12.82;8.77;;;-0.70;74.70;;;;;;5038997;28;20033;-77
2022/12/18 05:20:27;;;;;;;13.60;9.52;;;-0.70;74.70;;;;;;5059023;28;20025;-77
2022/12/18 05:22:54;;;;;;;11.60;8.70;;;-0.80;74.60;;;;;;5075338;28;20052;-80
2022/12/18 05:25:20;;;;;;;13.68;9.18;;;-0.80;74.60;;;;;;5059733;28;20481;-78
2022/12/18 05:27:46;;;;;;;12.38;9.15;;;-0.80;74.60;;;;;;5059561;28;20037;-79
2022/12/18 05:30:12;;;;;;;11.90;8.77;;;-0.80;74.60;;;;;;5075629;28;20043;-78
2022/12/18 05:32:38;;;;;;;11.43;8.60;;;-0.80;74.60;;;;;;5076502;28;20113;-82
2022/12/18 05:35:05;;;;;;;12.63;9.25;;;-0.80;74.70;;;;;;5059309;28;20066;-78
2022/12/18 05:37:31;;;;;;;12.48;9.02;;;-0.80;74.70;;;;;;5042231;28;20074;-78
2022/12/18 05:39:57;;;;;;;12.48;8.10;;;-0.90;74.60;;;;;;5059258;28;20123;-81
2022/12/18 05:42:22;;;;;;;11.05;8.32;;;-0.90;74.60;;;;;;5042400;28;20418;-77
2022/12/18 05:44:48;;;;;;;10.90;9.30;;;-0.90;74.60;;;;;;5042614;28;20123;-78
2022/12/18 05:47:14;;;;;;;12.07;8.20;;;-0.90;74.60;;;;;;5075334;28;20045;-78
2022/12/18 05:49:40;;;;;;;12.65;8.93;;;-0.90;74.60;;;;;;5059382;28;20326;-78
2022/12/18 05:52:05;;;;;;;13.43;8.98;;;-0.90;74.60;;;;;;5075543;28;20477;-78
2022/12/18 05:54:31;;;;;;;13.02;9.20;;;-0.90;74.60;;;;;;5075638;28;20017;-78
2022/12/18 05:56:57;;;;;;;11.40;8.70;;;-1.00;74.50;;;;;;5075483;28;20036;-77
2022/12/18 05:59:23;;;;;;;12.65;8.27;;;-1.00;74.50;;;;;;5058396;28;20530;-78
2022/12/18 06:01:49;;;;;;;12.70;9.45;;;-1.00;74.50;;;;;;5076737;28;20040;-78
2022/12/18 06:04:15;;;;;;;10.70;8.70;;;-1.00;74.50;;;;;;5075440;28;20445;-78
2022/12/18 06:06:41;;;;;;;12.98;9.07;;;-1.00;74.60;;;;;;5041985;28;20388;-79
2022/12/18 06:09:09;;;;;;;10.55;7.88;;;-1.00;74.50;;;;;;5075317;28;20039;-79
2022/12/18 06:11:36;;;;;;;11.85;8.88;;;-1.00;74.60;;;;;;5059076;28;20078;-76
2022/12/18 06:14:04;;;;;;;13.52;9.20;;;-1.00;74.50;;;;;;5057888;28;20029;-77
2022/12/18 06:16:31;;;;;;;11.65;8.57;;;-1.10;74.50;;;;;;5058191;28;20029;-79
2022/12/18 06:19:02;;;;;;;12.15;8.68;;;-1.10;74.50;;;;;;5074941;28;20119;-78
2022/12/18 06:21:28;;;;;;;13.10;9.57;;;-1.10;74.40;;;;;;5058219;28;20033;-78
2022/12/18 06:23:54;;;;;;;11.65;9.50;;;-1.10;74.40;;;;;;5057929;28;20481;-78
2022/12/18 06:26:20;;;;;;;10.85;8.13;;;-1.10;74.50;;;;;;5075002;28;20086;-79
2022/12/18 06:28:46;;;;;;;10.73;7.85;;;-1.10;74.50;;;;;;5075151;28;20069;-77
2022/12/18 06:31:12;;;;;;;12.38;8.05;;;-1.10;74.50;;;;;;5040135;28;20028;-78
2022/12/18 06:33:39;;;;;;;12.27;8.77;;;-1.20;74.40;;;;;;5074601;28;20035;-81
2022/12/18 06:36:13;;;;;;;13.32;8.88;;;-1.10;74.40;;;;;;5057870;28;20045;-78
2022/12/18 06:38:41;;;;;;;10.07;7.72;;;-1.20;74.40;;;;;;5057708;28;20025;-77
2022/12/18 06:41:12;;;;;;;10.82;7.57;;;-1.20;74.40;;;;;;5057825;28;20450;-78
2022/12/18 06:43:38;;;;;;;11.75;8.70;;;-1.20;74.40;;;;;;5058147;28;20082;-78
2022/12/18 06:46:04;;;;;;;9.70;7.93;;;-1.20;74.40;;;;;;5074505;28;20381;-81
2022/12/18 06:48:31;;;;;;;11.10;7.90;;;-1.20;74.30;;;;;;5058016;28;20170;-78
2022/12/18 06:50:57;;;;;;;10.80;8.73;;;-1.20;74.30;;;;;;5074410;28;20028;-77
2022/12/18 06:53:23;;;;;;;11.40;8.10;;;-1.20;74.30;;;;;;5074964;28;20020;-79
2022/12/18 06:55:48;;;;;;;10.70;8.05;;;-1.20;74.40;;;;;;5057284;28;20040;-78
2022/12/18 06:58:14;;;;;;;11.13;8.15;;;-1.20;74.30;;;;;;5040323;28;20397;-78
2022/12/18 07:00:40;;;;;;;11.63;8.45;;;-1.20;74.30;;;;;;5075169;28;20457;-78
2022/12/18 07:03:06;;;;;;;10.43;8.35;;;-1.30;74.30;;;;;;5057250;28;20492;-77
2022/12/18 07:05:32;;;;;;;10.40;8.15;;;-1.30;74.20;;;;;;5074993;28;20098;-79
2022/12/18 07:07:59;;;;;;;11.10;8.10;;;-1.30;74.30;;;;;;5073843;28;20147;-78
2022/12/18 07:10:25;;;;;;;11.40;8.23;;;-1.30;74.30;;;;;;5057054;28;20016;-77
2022/12/18 07:12:51;;;;;;;10.82;7.97;;;-1.30;74.90;;;;;;5057088;28;20500;-79
2022/12/18 07:15:17;;;;;;;11.80;8.68;;;-1.30;74.30;;;;;;5073623;28;20040;-78
2022/12/18 07:17:42;;;;;;;11.45;8.07;;;-1.30;74.30;;;;;;5073283;28;20116;-79
2022/12/18 07:20:09;;;;;;;12.20;8.57;;;-1.30;74.30;;;;;;5056856;28;20125;-78
2022/12/18 07:22:34;;;;;;;10.52;8.13;;;-1.30;74.30;;;;;;5073402;28;20049;-78
2022/12/18 07:25:00;;;;;;;10.02;8.00;;;-1.30;74.30;;;;;;5074956;28;20056;-77
2022/12/18 07:27:26;;;;;;;11.13;7.82;;;-1.30;74.30;;;;;;5073448;28;20036;-78
2022/12/18 07:29:52;;;;;;;11.73;8.35;;;-1.30;74.20;;;;;;5073668;28;20060;-78
2022/12/18 07:32:17;;;;;;;10.82;8.02;;;-1.40;74.20;;;;;;5074492;28;20029;-77
2022/12/18 07:34:43;;;;;;;10.85;8.25;;;-1.40;74.20;;;;;;5073278;28;20029;-77
2022/12/18 07:37:09;;;;;;;11.18;7.90;;;-1.40;74.20;;;;;;5073276;28;20056;-78
2022/12/18 07:39:35;;;;;;;8.60;7.03;;;-1.40;74.20;;;;;;5056878;28;20419;-78
2022/12/18 07:44:45;;;;;;;10.13;7.80;;;-1.40;74.20;;;;;;5073219;28;20037;-79
2022/12/18 07:47:11;;;;;;;10.15;7.30;;;-1.40;74.20;;;;;;5056209;28;20048;-78
2022/12/18 07:49:36;;;;;;;9.60;7.95;;;-1.40;74.20;;;;;;5056406;28;20514;-79
2022/12/18 07:52:02;;;;;;;9.85;7.43;;;-1.40;74.20;;;;;;5074392;28;20070;-79
2022/12/18 07:54:28;;;;;;;12.13;8.75;;;-1.40;74.20;;;;;;5056901;28;20032;-77
2022/12/18 07:56:53;;;;;;;12.40;8.85;;;-1.40;74.20;;;;;;5073341;28;20040;-80
2022/12/18 07:59:19;;;;;;;10.23;7.75;;;-1.40;74.20;;;;;;5073796;28;20040;-78
2022/12/18 08:01:45;;;;;;;9.43;7.40;;;-1.40;74.20;;;;;;5073196;28;20099;-79
2022/12/18 08:04:11;;;;;;;11.32;7.97;;;-1.40;74.10;;;;;;5074743;28;20032;-78
2022/12/18 08:06:37;;;;;;;11.00;7.65;;;-1.40;74.10;;;;;;5056297;28;20127;-78
2022/12/18 08:09:02;;;;;;;12.13;9.05;;;-1.40;74.10;;;;;;5056387;28;20338;-77
2022/12/18 08:11:28;;;;;;;9.98;7.50;;;-1.40;74.20;;;;;;5039668;28;20037;-78
2022/12/18 08:13:55;;;;;;;10.27;7.65;;;-1.40;74.10;;;;;;5056147;28;20047;-78
2022/12/18 08:16:22;;;;;;;10.93;8.35;;;-1.40;74.20;;;;;;5072520;28;20040;-77
2022/12/18 08:18:48;;;;;;;9.63;7.57;;;-1.50;74.10;;;;;;5055922;28;20032;-77
2022/12/18 08:21:17;;;;;;;10.30;8.05;;;-1.50;74.10;;;;;;5039262;28;20032;-78
2022/12/18 08:23:44;;;;;;;10.90;8.68;;;-1.50;74.10;;;;;;5073776;28;20051;-78
2022/12/18 08:26:11;;;;;;;10.30;7.78;;;-1.50;74.10;;;;;;5056480;28;20048;-80
2022/12/18 08:28:37;;;;;;;9.45;7.15;;;-1.40;74.10;;;;;;5056147;28;20064;-80
2022/12/18 08:31:03;;;;;;;9.95;7.68;;;-1.40;74.10;;;;;;5072796;28;20074;-79
2022/12/18 08:33:29;;;;;;;10.10;7.80;;;-1.40;74.10;;;;;;5039247;28;20458;-79
2022/12/18 08:35:55;;;;;;;11.52;8.20;;;-1.50;74.00;;;;;;5056990;28;20039;-78
2022/12/18 08:38:21;;;;;;;9.55;7.40;;;-1.50;74.00;;;;;;5041133;28;20545;-79
2022/12/18 08:40:46;;;;;;;10.65;8.10;;;-1.40;74.10;;;;;;5073976;28;20469;-78
2022/12/18 08:45:56;;;;;;;9.23;7.82;;;-1.40;74.00;;;;;;5074860;28;20044;-78
2022/12/18 08:48:22;;;;;;;9.75;7.25;;;-1.40;74.00;;;;;;5073159;28;20427;-79
2022/12/18 08:50:58;;;;;;;9.13;7.05;;;-1.40;74.00;;;;;;5056610;28;20029;-79
2022/12/18 08:53:24;;;;;;;10.38;7.25;;;-1.40;74.00;;;;;;5074508;28;20031;-78
2022/12/18 08:55:50;;;;;;;9.60;7.13;;;-1.40;73.90;;;;;;5043833;28;20025;-79
2022/12/18 08:58:16;;;;;;;9.48;7.35;;;-1.40;74.00;;;;;;5044345;28;20028;-80
2022/12/18 09:00:42;;;;;;;9.93;7.22;;;-1.40;73.90;;;;;;5077024;28;20036;-79
2022/12/18 09:03:15;;;;;;;8.38;7.43;;;-1.30;74.00;;;;;;5060666;28;20032;-79
2022/12/18 09:05:41;;;;;;;9.48;7.28;;;-1.30;74.00;;;;;;5060018;28;20127;-79
2022/12/18 09:08:07;;;;;;;8.55;6.55;;;-1.30;73.90;;;;;;5077251;28;20477;-78
2022/12/18 09:10:34;;;;;;;9.10;7.35;;;-1.30;73.90;;;;;;5077372;28;20075;-79
2022/12/18 09:12:59;;;;;;;9.02;7.20;;;-1.30;73.90;;;;;;5061591;28;20029;-79
2022/12/18 09:15:26;;;;;;;9.85;7.10;;;-1.30;73.90;;;;;;5078941;28;20139;-79
2022/12/18 09:17:52;;;;;;;9.52;6.93;;;-1.30;73.90;;;;;;5078169;28;20024;-80
2022/12/18 09:20:19;;;;;;;9.52;6.90;;;-1.20;73.90;;;;;;5078668;28;20173;-79
2022/12/18 09:22:44;;;;;;;9.95;6.18;;;-1.20;73.90;;;;;;5041122;28;20138;-78
2022/12/18 09:25:10;;;;;;;7.20;6.13;;;-1.20;73.90;;;;;;5057718;28;20601;-78
2022/12/18 09:27:36;;;;;;;8.75;6.47;;;-1.20;73.90;;;;;;5057440;28;20037;-78
2022/12/18 09:30:02;;;;;;;9.30;6.25;;;-1.10;73.90;;;;;;5058135;28;20055;-79
2022/12/18 09:32:28;;;;;;;9.05;6.18;;;-1.10;73.90;;;;;;5057495;28;20075;-79
2022/12/18 09:34:54;;;;;;;8.45;6.20;;;-1.10;73.90;;;;;;5041105;28;20397;-78
2022/12/18 09:37:20;;;;;;;8.68;7.07;;;-1.10;73.90;;;;;;5057131;28;20036;-78
2022/12/18 09:39:45;;;;;;;8.32;6.60;;;-1.10;73.90;;;;;;5041163;28;20425;-78
2022/12/18 09:42:22;;;;;;;7.75;6.15;;;-1.00;73.90;;;;;;5041202;28;20051;-78
2022/12/18 09:44:54;;;;;;;8.05;6.22;;;-1.00;73.90;;;;;;5057490;28;20032;-79
2022/12/18 09:47:34;;;;;;;8.23;6.13;;;-1.00;73.90;;;;;;5057073;28;20048;-77
2022/12/18 09:50:07;;;;;;;8.55;6.20;;;-1.00;73.90;;;;;;5056707;28;20029;-78
2022/12/18 09:52:50;;;;;;;9.27;6.78;;;-0.90;73.90;;;;;;5074209;28;20029;-79
2022/12/18 09:55:22;;;;;;;9.40;6.20;;;-0.80;74.00;;;;;;5073776;28;20052;-78
2022/12/18 09:58:04;;;;;;;8.38;5.90;;;-0.90;73.90;;;;;;5040604;28;20064;-78
2022/12/18 10:00:30;;;;;;;8.13;5.95;;;-0.80;74.00;;;;;;5039786;28;20028;-79
2022/12/18 10:03:03;;;;;;;7.75;5.85;;;-0.80;73.90;;;;;;5039776;28;20025;-78
2022/12/18 10:05:36;;;;;;;9.05;6.30;;;-0.80;73.90;;;;;;5064459;28;20048;-79
2022/12/18 10:08:17;;;;;;;7.82;5.47;;;-0.80;73.90;;;;;;5075927;28;20119;-78
2022/12/18 10:10:57;;;;;;;8.00;6.13;;;-0.80;73.90;;;;;;5057927;28;20078;-79
2022/12/18 10:13:41;;;;;;;7.95;5.95;;;-0.70;73.90;;;;;;5073989;28;20449;-80
2022/12/18 10:16:25;;;;;;;8.05;5.68;;;-0.70;73.90;;;;;;5056705;28;20036;-79
2022/12/18 10:18:57;;;;;;;8.20;6.50;;;-0.60;74.00;;;;;;5058037;28;20033;-79
2022/12/18 10:21:33;;;;;;;7.82;5.97;;;-0.60;74.00;;;;;;5059996;28;20064;-78
2022/12/18 10:24:05;;;;;;;8.02;5.70;;;-0.60;73.90;;;;;;5025993;28;20045;-78
2022/12/18 10:26:32;;;;;;;7.15;5.22;;;-0.60;73.90;;;;;;5038673;28;20037;-78
2022/12/18 10:28:59;;;;;;;7.55;6.00;;;-0.50;73.90;;;;;;5038895;28;20033;-78
2022/12/18 10:31:25;;;;;;;7.50;5.95;;;-0.50;73.90;;;;;;5039410;28;20463;-78
2022/12/18 10:33:53;;;;;;;8.05;6.05;;;-0.50;73.90;;;;;;5038683;28;20035;-79
2022/12/18 10:36:20;;;;;;;7.85;6.05;;;-0.50;74.00;;;;;;5037789;28;20033;-78
2022/12/18 10:38:46;;;;;;;7.65;6.03;;;-0.40;74.00;;;;;;5020959;28;20022;-78
2022/12/18 10:41:23;;;;;;;8.25;5.50;;;-0.40;74.00;;;;;;5038411;28;20036;-78
2022/12/18 10:44:11;;;;;;;7.00;5.68;;;-0.40;74.00;;;;;;5038349;28;20122;-78
2022/12/18 10:46:37;;;;;;;7.00;5.63;;;-0.30;74.00;;;;;;5037299;28;20072;-78
2022/12/18 10:49:04;;;;;;;8.63;6.88;;;-0.30;73.90;;;;;;5036891;28;20029;-79
2022/12/18 10:51:36;;;;;;;7.82;6.05;;;-0.30;74.00;;;;;;5035830;28;20033;-79
2022/12/18 10:54:23;;;;;;;7.93;5.72;;;-0.30;74.00;;;;;;5035528;28;20065;-79
2022/12/18 10:56:49;;;;;;;9.20;6.22;;;-0.20;74.10;;;;;;5036031;28;20037;-78
2022/12/18 10:59:17;;;;;;;7.57;5.43;;;-0.20;74.00;;;;;;5053320;28;20088;-78
2022/12/18 11:01:48;;;;;;;7.90;5.28;;;-0.20;74.00;;;;;;5035978;28;20026;-78
2022/12/18 11:04:29;;;;;;;7.70;5.47;;;-0.10;74.10;;;;;;5018503;28;20033;-77
2022/12/18 11:07:04;;;;;;;6.95;5.63;;;-0.10;74.10;;;;;;5035291;28;20030;-78
2022/12/18 11:09:35;;;;;;;7.65;5.97;;;-0.10;74.00;;;;;;5035608;28;20386;-78
2022/12/18 11:12:15;;;;;;;8.55;6.35;;;0.00;74.10;;;;;;5034694;28;20101;-77
2022/12/18 11:14:48;;;;;;;7.63;5.57;;;0.00;74.10;;;;;;5034521;28;20033;-75
2022/12/18 11:17:35;;;;;;;7.15;5.60;;;0.00;74.10;;;;;;5034410;28;20025;-77
2022/12/18 11:20:04;;;;;;;7.22;5.13;;;0.10;74.10;;;;;;5036267;28;20028;-78
2022/12/18 11:22:32;;;;;;;7.65;5.43;;;0.10;74.10;;;;;;5041566;28;20072;-79
2022/12/18 11:25:17;;;;;;;7.88;5.40;;;0.10;74.10;;;;;;5079481;28;20097;-77
2022/12/18 11:28:05;;;;;;;6.88;5.53;;;0.20;74.20;;;;;;5078384;28;20036;-79
2022/12/18 11:30:37;;;;;;;7.00;5.50;;;0.20;74.20;;;;;;5061075;28;20120;-78
2022/12/18 11:33:21;;;;;;;6.90;5.47;;;0.20;74.10;;;;;;5044804;28;20028;-77
2022/12/18 11:35:52;;;;;;;7.00;5.55;;;0.20;74.10;;;;;;5062772;28;20036;-77
2022/12/18 11:38:28;;;;;;;8.45;6.13;;;0.30;74.20;;;;;;5078880;28;20024;-77
2022/12/18 11:42:08;;;;;;;7.60;5.78;;;0.30;74.20;;;;;;5077171;28;20063;-76
2022/12/18 11:44:26;;;;;;;7.88;5.82;;;0.30;74.20;;;;;;5074893;28;20028;-76
2022/12/18 11:46:59;;;;;;;7.40;5.22;;;0.30;74.20;;;;;;5057044;28;20036;-76
2022/12/18 11:49:36;;;;;;;7.28;5.82;;;0.40;74.20;;;;;;5057933;28;20037;-78
2022/12/18 11:52:14;;;;;;;7.55;5.72;;;0.40;74.30;;;;;;5060721;28;20024;-76
2022/12/18 11:54:39;;;;;;;7.25;5.53;;;0.40;74.30;;;;;;5077111;28;20029;-77
2022/12/18 11:57:33;;;;;;;7.85;5.63;;;0.50;74.30;;;;;;5058649;28;20456;-77
2022/12/18 12:00:39;;;;;;;8.95;5.55;;;0.50;74.30;;;;;;5059547;28;20029;-77
2022/12/18 12:03:19;;;;;;;8.50;5.32;;;0.50;74.30;;;;;;5015658;28;20060;-77
2022/12/18 12:06:02;;;;;;;8.25;6.03;;;0.60;74.30;;;;;;5070703;28;20105;-78
2022/12/18 12:08:43;;;;;;;7.72;5.90;;;0.60;75.00;;;;;;5040105;28;20058;-78
2022/12/18 12:11:34;;;;;;;7.43;5.57;;;0.60;74.40;;;;;;5073472;28;20035;-75
2022/12/18 12:14:17;;;;;;;7.22;5.65;;;0.60;74.30;;;;;;5056521;28;20032;-77
2022/12/18 12:17:06;;;;;;;8.48;6.82;;;0.70;74.40;;;;;;5039010;28;20032;-78
2022/12/18 12:19:57;;;;;;;8.18;5.50;;;0.70;74.40;;;;;;5074322;28;20035;-76
2022/12/18 12:22:35;;;;;;;7.32;5.43;;;0.70;74.40;;;;;;5040374;28;20079;-76
2022/12/18 12:25:20;;;;;;;6.97;5.18;;;0.80;74.40;;;;;;5073188;28;20049;-77
2022/12/18 12:28:19;;;;;;;8.05;5.78;;;0.80;74.50;;;;;;5074857;28;20032;-77
2022/12/18 12:30:56;;;;;;;6.78;5.22;;;0.80;74.50;;;;;;5074063;28;20465;-78
2022/12/18 12:33:37;;;;;;;7.97;6.00;;;0.90;74.50;;;;;;5041508;28;20358;-79
2022/12/18 12:36:27;;;;;;;7.43;5.57;;;0.90;74.50;;;;;;5058482;28;20060;-78
2022/12/18 12:38:57;;;;;;;6.90;5.65;;;0.90;74.50;;;;;;5075959;28;20060;-76
2022/12/18 12:44:44;;;;;;;7.20;5.32;;;1.00;74.60;;;;;;5074102;28;20512;-77
2022/12/18 12:47:24;;;;;;;7.50;5.45;;;1.00;74.60;;;;;;5072529;28;20041;-77
2022/12/18 12:49:50;;;;;;;7.97;5.75;;;1.00;74.50;;;;;;5055760;28;20040;-77
2022/12/18 12:52:25;;;;;;;8.35;6.05;;;1.10;74.50;;;;;;5072462;28;20441;-78
2022/12/18 12:54:51;;;;;;;8.30;5.97;;;1.10;74.60;;;;;;5072378;28;20033;-77
2022/12/18 12:57:35;;;;;;;8.48;5.93;;;1.10;74.60;;;;;;5072356;28;20096;-78
2022/12/18 13:00:15;;;;;;;7.88;5.65;;;1.10;74.60;;;;;;5055421;28;20393;-77
2022/12/18 13:03:21;;;;;;;7.28;5.30;;;1.20;74.60;;;;;;5073627;28;20058;-77
2022/12/18 13:05:58;;;;;;;6.97;5.82;;;1.20;74.60;;;;;;5042659;28;20041;-77
2022/12/18 13:08:30;;;;;;;9.43;5.80;;;1.20;74.60;;;;;;5055169;28;20037;-78
2022/12/18 13:13:54;;;;;;;8.57;5.53;;;1.30;74.60;;;;;;5074304;28;20103;-77
2022/12/18 13:16:27;;;;;;;7.03;5.57;;;1.30;74.60;;;;;;5040758;28;20114;-77